Time;durP1;ratioP1;P1;durP2;ratioP2;P2;SDS_P1;SDS_P2;PMS_P1;PMS_P2;Temp;Humidity;BMP_temperature;BMP_pressure;BME280_temperature;BME280_humidity;BME280_pressure;Samples;Min_cycle;Max_cycle;Signal;HPM_P1;HPM_P2
2023/06/14 00:01:40;;;;;;;9.02;3.58;;;12.20;67.90;;;;;;4861685;29;20056;-90
2023/06/14 00:04:08;;;;;;;7.63;3.70;;;12.20;68.40;;;;;;4842967;29;20054;-90
2023/06/14 00:06:36;;;;;;;9.63;4.43;;;12.10;68.50;;;;;;4845784;29;20045;-90
2023/06/14 00:09:03;;;;;;;9.05;4.13;;;12.00;68.60;;;;;;4847140;29;20053;-90
2023/06/14 00:11:30;;;;;;;10.73;4.57;;;12.00;68.60;;;;;;4842380;29;20136;-90
2023/06/14 00:13:57;;;;;;;9.25;3.92;;;11.90;68.00;;;;;;4846438;29;20053;-90
2023/06/14 00:16:25;;;;;;;9.33;3.63;;;11.90;69.20;;;;;;4845674;29;20058;-90
2023/06/14 00:18:52;;;;;;;9.40;4.50;;;11.90;69.30;;;;;;4847061;29;20401;-90
2023/06/14 00:21:19;;;;;;;8.95;4.18;;;11.70;69.60;;;;;;4858125;29;20049;-90
2023/06/14 00:23:46;;;;;;;7.60;3.70;;;11.50;69.60;;;;;;4857768;29;20045;-90
2023/06/14 00:26:14;;;;;;;10.25;3.85;;;11.50;69.80;;;;;;4860760;29;20058;-90
2023/06/14 00:28:43;;;;;;;8.90;3.33;;;11.50;69.70;;;;;;4846205;29;20041;-90
2023/06/14 00:31:10;;;;;;;8.98;3.78;;;11.50;69.50;;;;;;4842709;29;20734;-90
2023/06/14 00:33:37;;;;;;;8.57;3.95;;;11.50;69.20;;;;;;4845905;29;20596;-90
2023/06/14 00:36:05;;;;;;;8.70;3.45;;;11.50;69.30;;;;;;4864672;29;20128;-89
2023/06/14 00:38:32;;;;;;;7.68;3.40;;;11.50;69.30;;;;;;4860232;29;20051;-89
2023/06/14 00:41:00;;;;;;;7.83;3.43;;;11.50;68.70;;;;;;4847888;29;20136;-90
2023/06/14 00:43:27;;;;;;;8.45;4.03;;;11.50;68.90;;;;;;4847127;29;20049;-90
2023/06/14 00:45:54;;;;;;;6.93;3.47;;;11.50;69.30;;;;;;4861264;29;20097;-89
2023/06/14 00:48:22;;;;;;;7.70;3.50;;;11.40;69.40;;;;;;4846519;29;20128;-90
2023/06/14 00:50:52;;;;;;;9.25;3.90;;;11.40;69.40;;;;;;4861262;29;20496;-90
2023/06/14 00:53:20;;;;;;;8.03;3.67;;;11.30;69.50;;;;;;4853956;29;20060;-90
2023/06/14 00:55:47;;;;;;;7.57;3.25;;;11.40;69.40;;;;;;4843557;29;20101;-90
2023/06/14 00:58:16;;;;;;;7.78;3.42;;;11.40;69.50;;;;;;4858206;29;20128;-90
2023/06/14 01:00:44;;;;;;;7.07;3.70;;;11.30;69.20;;;;;;4845264;29;20097;-90
2023/06/14 01:03:12;;;;;;;8.63;3.53;;;11.30;69.40;;;;;;4842815;29;20046;-90
2023/06/14 01:05:40;;;;;;;6.23;3.00;;;11.20;69.50;;;;;;4845302;29;20050;-89
2023/06/14 01:08:28;;;;;;;6.80;2.80;;;11.30;69.50;;;;;;4840374;29;20038;-89
2023/06/14 01:11:12;;;;;;;6.85;3.00;;;11.30;69.60;;;;;;4845207;29;20054;-90
2023/06/14 01:13:42;;;;;;;6.38;2.97;;;11.30;69.40;;;;;;4831500;29;20049;-90
2023/06/14 01:16:10;;;;;;;6.90;2.88;;;11.30;69.10;;;;;;4838109;29;20504;-90
2023/06/14 01:18:38;;;;;;;6.90;3.03;;;11.30;69.10;;;;;;4831417;29;20133;-90
2023/06/14 01:21:08;;;;;;;10.55;3.25;;;11.40;69.10;;;;;;4836002;29;20049;-90
2023/06/14 01:23:35;;;;;;;6.45;2.75;;;11.40;68.80;;;;;;4840975;29;20045;-90
2023/06/14 01:26:03;;;;;;;6.28;2.97;;;11.30;68.70;;;;;;4853123;29;20470;-90
2023/06/14 01:28:34;;;;;;;6.93;3.47;;;11.20;69.10;;;;;;4834767;29;20044;-90
2023/06/14 01:31:04;;;;;;;6.33;3.10;;;11.00;69.50;;;;;;4849380;29;20053;-89
2023/06/14 01:33:35;;;;;;;7.75;3.00;;;11.00;69.80;;;;;;4836905;29;20081;-89
2023/06/14 01:36:05;;;;;;;8.00;3.35;;;11.00;70.00;;;;;;4853726;29;20128;-89
2023/06/14 01:38:32;;;;;;;7.03;3.58;;;11.00;70.20;;;;;;4838853;29;20162;-90
2023/06/14 01:41:01;;;;;;;6.22;3.00;;;11.00;70.10;;;;;;4835036;29;20041;-90
2023/06/14 01:43:30;;;;;;;7.30;2.60;;;11.00;69.90;;;;;;4851298;29;20073;-90
2023/06/14 01:45:59;;;;;;;6.30;2.95;;;11.00;69.90;;;;;;4831059;29;20573;-90
2023/06/14 01:48:27;;;;;;;6.68;3.03;;;11.00;69.80;;;;;;4839674;29;20049;-90
2023/06/14 01:50:54;;;;;;;6.32;2.80;;;11.00;69.70;;;;;;4839717;29;20060;-90
2023/06/14 01:53:22;;;;;;;7.55;3.70;;;11.00;69.50;;;;;;4852407;29;20140;-90
2023/06/14 01:55:49;;;;;;;9.10;2.40;;;11.00;69.60;;;;;;4857529;29;20089;-89
2023/06/14 01:58:16;;;;;;;7.28;2.63;;;10.90;69.70;;;;;;4859517;29;20109;-90
2023/06/14 02:00:45;;;;;;;6.28;2.80;;;10.90;69.70;;;;;;4859269;29;20136;-90
2023/06/14 02:03:12;;;;;;;6.30;2.80;;;11.00;69.70;;;;;;4842698;29;20052;-90
2023/06/14 02:05:40;;;;;;;7.22;2.97;;;10.90;69.80;;;;;;4858938;29;20109;-90
2023/06/14 02:08:07;;;;;;;7.60;3.00;;;11.00;69.40;;;;;;4837853;29;20065;-89
2023/06/14 02:10:53;;;;;;;7.05;2.88;;;10.90;69.40;;;;;;4857923;29;20516;-90
2023/06/14 02:13:21;;;;;;;7.40;2.70;;;10.90;69.50;;;;;;4843539;29;20077;-90
2023/06/14 02:15:54;;;;;;;6.47;2.45;;;10.80;69.60;;;;;;4842478;29;20098;-89
2023/06/14 02:18:22;;;;;;;6.38;2.10;;;10.80;69.70;;;;;;4863183;29;20048;-90
2023/06/14 02:20:49;;;;;;;6.00;2.17;;;10.70;69.70;;;;;;4856213;29;20053;-90
2023/06/14 02:23:16;;;;;;;6.28;2.35;;;10.70;69.30;;;;;;4847261;29;20052;-90
2023/06/14 02:25:44;;;;;;;7.97;2.42;;;10.70;69.30;;;;;;4840631;29;20056;-89
2023/06/14 02:28:12;;;;;;;8.35;2.50;;;10.60;69.70;;;;;;4844659;29;20045;-90
2023/06/14 02:30:40;;;;;;;5.53;2.13;;;10.70;69.60;;;;;;4841639;29;20041;-90
2023/06/14 02:33:07;;;;;;;7.00;2.30;;;10.60;69.70;;;;;;4843329;29;20078;-89
2023/06/14 02:35:34;;;;;;;8.10;2.33;;;10.50;69.90;;;;;;4861059;29;20056;-90
2023/06/14 02:38:01;;;;;;;5.80;2.53;;;10.40;70.00;;;;;;4859132;29;20045;-89
2023/06/14 02:40:28;;;;;;;6.38;2.13;;;10.40;70.10;;;;;;4847602;29;20064;-90
2023/06/14 02:42:56;;;;;;;4.80;2.17;;;10.30;70.10;;;;;;4860767;29;20056;-90
2023/06/14 02:45:23;;;;;;;7.23;2.63;;;10.30;69.50;;;;;;4846521;29;20041;-90
2023/06/14 02:47:51;;;;;;;8.10;2.65;;;10.40;69.60;;;;;;4844258;29;20461;-90
2023/06/14 02:50:18;;;;;;;7.45;2.42;;;10.20;69.90;;;;;;4844414;29;20396;-90
2023/06/14 02:52:45;;;;;;;5.70;2.45;;;10.30;69.80;;;;;;4847944;29;20492;-90
2023/06/14 02:55:12;;;;;;;6.70;2.75;;;10.20;69.50;;;;;;4842652;29;20378;-90
2023/06/14 02:57:40;;;;;;;7.30;2.47;;;10.10;70.20;;;;;;4858989;29;20071;-90
2023/06/14 03:00:10;;;;;;;8.48;2.75;;;10.00;70.90;;;;;;4845261;29;20046;-90
2023/06/14 03:02:38;;;;;;;6.60;2.30;;;10.10;71.40;;;;;;4863636;29;20109;-90
2023/06/14 03:05:06;;;;;;;9.60;3.00;;;10.00;71.40;;;;;;4844680;29;20041;-90
2023/06/14 03:07:34;;;;;;;5.72;2.38;;;10.10;71.40;;;;;;4842336;29;20070;-89
2023/06/14 03:10:03;;;;;;;6.47;2.37;;;10.20;70.90;;;;;;4862125;29;20041;-89
2023/06/14 03:12:31;;;;;;;6.65;2.42;;;10.20;70.90;;;;;;4857098;29;20056;-89
2023/06/14 03:15:01;;;;;;;9.10;3.80;;;10.20;71.10;;;;;;4840281;29;20041;-90
2023/06/14 03:17:33;;;;;;;40.85;8.07;;;10.20;71.70;;;;;;4860822;29;20053;-90
2023/06/14 03:20:03;;;;;;;21.35;8.70;;;10.10;73.90;;;;;;4866378;29;20116;-90
2023/06/14 03:22:30;;;;;;;32.33;9.07;;;10.00;74.70;;;;;;4844606;29;20041;-90
2023/06/14 03:24:59;;;;;;;37.28;11.02;;;10.00;75.80;;;;;;4843974;29;20492;-90
2023/06/14 03:27:29;;;;;;;19.80;8.98;;;10.00;76.10;;;;;;4841621;29;20037;-90
2023/06/14 03:29:57;;;;;;;46.88;11.55;;;10.00;76.60;;;;;;4861136;29;20045;-90
2023/06/14 03:32:24;;;;;;;32.03;9.10;;;10.00;77.20;;;;;;4841605;29;20057;-90
2023/06/14 03:34:52;;;;;;;27.87;10.10;;;10.00;77.70;;;;;;4859337;29;20148;-90
2023/06/14 03:37:22;;;;;;;73.72;11.40;;;10.00;78.00;;;;;;4859567;29;20052;-92
2023/06/14 03:39:49;;;;;;;35.47;11.25;;;10.00;78.50;;;;;;4836090;29;20085;-92
2023/06/14 03:42:21;;;;;;;32.45;10.65;;;9.90;78.90;;;;;;4839479;29;20045;-91
2023/06/14 03:44:48;;;;;;;19.70;9.18;;;9.90;79.20;;;;;;4852031;29;20145;-92
2023/06/14 03:47:18;;;;;;;27.50;10.57;;;9.90;79.20;;;;;;4851630;29;20075;-92
2023/06/14 03:49:46;;;;;;;27.58;9.25;;;10.00;79.50;;;;;;4831454;29;20052;-92
2023/06/14 03:52:14;;;;;;;53.15;9.18;;;9.90;79.60;;;;;;4846344;29;20057;-88
2023/06/14 03:54:44;;;;;;;20.00;9.20;;;10.00;79.00;;;;;;4835109;29;20525;-89
2023/06/14 03:57:15;;;;;;;20.65;7.90;;;10.10;79.00;;;;;;4834201;29;20049;-89
2023/06/14 03:59:43;;;;;;;16.63;8.37;;;10.20;78.60;;;;;;4846338;29;20040;-88
2023/06/14 04:02:11;;;;;;;23.90;8.73;;;10.30;78.40;;;;;;4846993;29;20069;-88
2023/06/14 04:04:38;;;;;;;17.25;7.85;;;10.40;78.20;;;;;;4841479;29;20054;-89
2023/06/14 04:07:08;;;;;;;15.68;7.72;;;10.50;77.60;;;;;;4861765;29;20042;-88
2023/06/14 04:09:36;;;;;;;20.45;9.38;;;10.70;77.40;;;;;;4840663;29;20050;-89
2023/06/14 04:12:03;;;;;;;19.43;8.83;;;10.70;77.40;;;;;;4850306;29;20080;-88
2023/06/14 04:14:34;;;;;;;22.15;8.95;;;10.70;77.80;;;;;;4844075;29;20088;-88
2023/06/14 04:17:02;;;;;;;16.30;7.68;;;10.70;77.70;;;;;;4845908;29;20132;-89
2023/06/14 04:19:29;;;;;;;15.70;7.70;;;10.70;77.30;;;;;;4843385;29;20060;-89
2023/06/14 04:22:01;;;;;;;17.67;7.60;;;10.80;77.00;;;;;;4863049;29;20414;-88
2023/06/14 04:24:31;;;;;;;15.47;7.70;;;10.90;76.70;;;;;;4863363;29;20044;-88
2023/06/14 04:27:01;;;;;;;16.98;7.95;;;10.90;76.90;;;;;;4858708;29;20083;-89
2023/06/14 04:29:29;;;;;;;14.57;7.18;;;10.90;76.80;;;;;;4848910;29;20041;-89
2023/06/14 04:32:01;;;;;;;14.88;7.35;;;10.90;77.30;;;;;;4858631;29;20052;-89
2023/06/14 04:34:33;;;;;;;14.25;7.07;;;10.80;77.20;;;;;;4861368;29;20058;-88
2023/06/14 04:37:02;;;;;;;15.70;7.80;;;10.90;76.90;;;;;;4853684;29;20049;-89
2023/06/14 04:39:33;;;;;;;18.33;7.28;;;11.00;77.10;;;;;;4843397;29;20497;-88
2023/06/14 04:42:03;;;;;;;16.42;7.85;;;11.00;77.10;;;;;;4842928;29;20386;-89
2023/06/14 04:44:31;;;;;;;13.68;6.65;;;11.00;77.20;;;;;;4840685;29;20132;-89
2023/06/14 04:47:04;;;;;;;15.18;7.18;;;11.00;77.20;;;;;;4854091;29;20124;-89
2023/06/14 04:49:32;;;;;;;15.97;7.43;;;11.00;77.00;;;;;;4858049;29;20082;-89
2023/06/14 04:52:01;;;;;;;15.80;7.55;;;11.00;77.30;;;;;;4843969;29;20037;-89
2023/06/14 04:54:37;;;;;;;13.90;6.38;;;11.00;77.50;;;;;;4857403;29;20564;-89
2023/06/14 04:57:09;;;;;;;14.10;6.80;;;11.00;77.50;;;;;;4854971;29;20496;-89
2023/06/14 04:59:36;;;;;;;15.18;7.15;;;11.10;78.00;;;;;;4832582;29;20045;-89
2023/06/14 05:02:03;;;;;;;18.50;8.23;;;11.10;77.80;;;;;;4856409;29;20096;-89
2023/06/14 05:04:31;;;;;;;24.25;10.10;;;11.20;77.60;;;;;;4840812;29;20132;-88
2023/06/14 05:06:58;;;;;;;23.42;9.68;;;11.30;77.10;;;;;;4843484;29;20101;-88
2023/06/14 05:09:25;;;;;;;26.65;10.18;;;11.40;77.20;;;;;;4845476;29;20056;-88
2023/06/14 05:11:52;;;;;;;22.25;10.23;;;11.50;76.80;;;;;;4857402;29;20493;-88
2023/06/14 05:14:22;;;;;;;25.03;10.67;;;11.50;76.70;;;;;;4857231;29;20064;-89
2023/06/14 05:16:51;;;;;;;25.13;10.63;;;11.70;76.90;;;;;;4850772;29;20052;-89
2023/06/14 05:19:18;;;;;;;23.63;11.30;;;11.70;77.00;;;;;;4858381;29;20120;-88
2023/06/14 05:21:46;;;;;;;28.92;13.23;;;11.80;76.20;;;;;;4845221;29;20049;-88
2023/06/14 05:24:14;;;;;;;28.17;13.18;;;11.80;76.30;;;;;;4831763;29;20513;-88
2023/06/14 05:26:41;;;;;;;28.67;13.40;;;11.90;77.00;;;;;;4859051;29;20479;-88
2023/06/14 05:29:08;;;;;;;27.55;12.38;;;12.00;77.20;;;;;;4842910;29;20038;-88
2023/06/14 05:31:35;;;;;;;25.80;11.52;;;12.00;76.30;;;;;;4842460;29;20045;-88
2023/06/14 05:34:03;;;;;;;22.05;10.30;;;12.20;76.20;;;;;;4841452;29;20449;-89
2023/06/14 05:36:30;;;;;;;23.75;11.80;;;12.30;76.00;;;;;;4859658;29;20046;-88
2023/06/14 05:38:59;;;;;;;26.30;11.93;;;12.50;75.40;;;;;;4839246;29;20056;-88
2023/06/14 05:41:27;;;;;;;23.23;10.40;;;12.50;75.70;;;;;;4858386;29;20050;-89
2023/06/14 05:43:55;;;;;;;24.27;10.88;;;12.50;75.60;;;;;;4843022;29;20078;-88
2023/06/14 05:46:25;;;;;;;24.80;11.18;;;12.50;75.50;;;;;;4853832;29;20052;-89
2023/06/14 05:48:53;;;;;;;25.40;11.35;;;12.50;75.70;;;;;;4853887;29;20097;-89
2023/06/14 05:51:21;;;;;;;24.80;10.73;;;12.70;76.00;;;;;;4856813;29;20068;-89
2023/06/14 05:53:48;;;;;;;23.33;10.80;;;12.80;75.70;;;;;;4844673;29;20085;-89
2023/06/14 05:56:20;;;;;;;22.13;10.10;;;12.80;75.70;;;;;;4839781;29;20052;-88
2023/06/14 05:58:47;;;;;;;25.30;10.23;;;12.90;75.20;;;;;;4857875;29;20069;-89
2023/06/14 06:01:14;;;;;;;26.17;10.27;;;13.00;75.00;;;;;;4859046;29;20057;-89
2023/06/14 06:03:46;;;;;;;40.67;11.63;;;13.00;75.20;;;;;;4840866;29;20050;-88
2023/06/14 06:06:14;;;;;;;28.20;10.00;;;13.10;75.20;;;;;;4856946;29;20045;-89
2023/06/14 06:08:41;;;;;;;23.23;9.80;;;13.30;74.70;;;;;;4851284;29;20074;-88
2023/06/14 06:11:08;;;;;;;22.13;9.57;;;13.40;74.30;;;;;;4856621;29;20053;-89
2023/06/14 06:13:35;;;;;;;26.30;11.10;;;13.40;74.40;;;;;;4840322;29;20045;-89
2023/06/14 06:16:03;;;;;;;26.40;10.63;;;13.50;75.00;;;;;;4843416;29;20129;-89
2023/06/14 06:18:31;;;;;;;25.13;9.88;;;13.50;74.80;;;;;;4841658;29;20085;-89
2023/06/14 06:20:58;;;;;;;24.40;9.65;;;13.60;74.40;;;;;;4842171;29;20054;-89
2023/06/14 06:23:25;;;;;;;23.80;10.52;;;13.70;74.40;;;;;;4855905;29;20508;-89
2023/06/14 06:25:53;;;;;;;23.33;10.25;;;13.60;74.00;;;;;;4840608;29;20049;-89
2023/06/14 06:28:20;;;;;;;25.37;10.30;;;13.50;74.70;;;;;;4843366;29;20113;-89
2023/06/14 06:30:47;;;;;;;26.08;10.77;;;13.50;74.60;;;;;;4860702;29;20136;-89
2023/06/14 06:33:14;;;;;;;28.75;11.75;;;13.70;74.20;;;;;;4845952;29;20056;-89
2023/06/14 06:35:42;;;;;;;28.42;11.82;;;13.70;74.50;;;;;;4845284;29;20061;-89
2023/06/14 06:38:09;;;;;;;27.83;11.45;;;13.70;74.00;;;;;;4863330;29;20045;-89
2023/06/14 06:40:37;;;;;;;26.63;12.33;;;13.80;73.90;;;;;;4845437;29;20056;-89
2023/06/14 06:43:04;;;;;;;32.15;12.32;;;14.00;74.00;;;;;;4846633;29;20042;-89
2023/06/14 06:45:40;;;;;;;28.30;13.15;;;14.00;73.60;;;;;;4841412;29;20073;-88
2023/06/14 06:48:09;;;;;;;24.83;11.45;;;14.00;73.60;;;;;;4860549;29;20053;-89
2023/06/14 06:50:36;;;;;;;28.33;11.73;;;14.20;72.90;;;;;;4860975;29;20500;-89
2023/06/14 06:53:05;;;;;;;28.43;12.33;;;14.20;72.70;;;;;;4855315;29;20056;-89
2023/06/14 06:55:32;;;;;;;27.80;11.23;;;14.20;73.00;;;;;;4835094;29;20053;-89
2023/06/14 06:58:00;;;;;;;28.80;11.48;;;14.30;72.80;;;;;;4861171;29;20076;-89
2023/06/14 07:00:27;;;;;;;28.65;11.82;;;14.30;72.90;;;;;;4847827;29;20122;-89
2023/06/14 07:02:54;;;;;;;24.02;11.93;;;14.30;73.00;;;;;;4859941;29;20034;-89
2023/06/14 07:05:22;;;;;;;27.60;11.30;;;14.30;73.00;;;;;;4854258;29;20140;-89
2023/06/14 07:07:49;;;;;;;25.20;12.20;;;14.10;73.20;;;;;;4862423;29;20420;-89
2023/06/14 07:10:17;;;;;;;26.77;11.60;;;14.40;73.10;;;;;;4858936;29;20059;-89
2023/06/14 07:12:44;;;;;;;26.27;11.23;;;14.50;73.30;;;;;;4860847;29;20496;-89
2023/06/14 07:15:12;;;;;;;22.10;9.65;;;14.60;72.80;;;;;;4863051;29;20382;-89
2023/06/14 07:17:41;;;;;;;22.97;10.43;;;14.50;71.50;;;;;;4844571;29;20060;-89
2023/06/14 07:20:13;;;;;;;25.13;11.40;;;14.50;72.00;;;;;;4845980;29;20045;-89
2023/06/14 07:22:41;;;;;;;29.75;12.18;;;14.70;71.90;;;;;;4845713;29;20144;-89
2023/06/14 07:25:12;;;;;;;25.70;11.18;;;15.10;72.40;;;;;;4847306;29;20041;-89
2023/06/14 07:27:41;;;;;;;25.73;10.80;;;15.70;71.70;;;;;;4844102;29;20049;-90
2023/06/14 07:30:08;;;;;;;21.93;10.30;;;16.00;69.40;;;;;;4846926;29;20535;-89
2023/06/14 07:32:36;;;;;;;23.30;10.15;;;16.00;68.40;;;;;;4855158;29;20041;-89
2023/06/14 07:35:04;;;;;;;24.40;11.18;;;15.90;68.60;;;;;;4860261;29;20054;-89
2023/06/14 07:37:31;;;;;;;22.95;9.75;;;15.70;68.50;;;;;;4859277;29;20049;-89
2023/06/14 07:39:58;;;;;;;23.98;9.90;;;15.60;68.90;;;;;;4843391;29;20071;-89
2023/06/14 07:42:25;;;;;;;22.20;10.40;;;15.50;69.10;;;;;;4845505;29;20049;-89
2023/06/14 07:44:53;;;;;;;24.10;11.15;;;15.40;70.00;;;;;;4846144;29;20068;-89
2023/06/14 07:47:20;;;;;;;21.52;10.13;;;15.40;69.90;;;;;;4855490;29;20075;-89
2023/06/14 07:49:48;;;;;;;31.48;12.48;;;15.30;70.30;;;;;;4837164;29;20041;-89
2023/06/14 07:52:15;;;;;;;20.13;9.05;;;15.30;70.40;;;;;;4856838;29;20069;-89
2023/06/14 07:54:42;;;;;;;18.03;8.53;;;15.40;70.00;;;;;;4836233;29;20148;-89
2023/06/14 07:57:09;;;;;;;17.65;8.00;;;15.40;69.70;;;;;;4860502;29;20042;-88
2023/06/14 07:59:36;;;;;;;19.38;8.40;;;15.50;69.50;;;;;;4860707;29;20056;-89
2023/06/14 08:02:03;;;;;;;25.00;9.75;;;15.50;68.80;;;;;;4843423;29;20042;-89
2023/06/14 08:04:32;;;;;;;18.67;8.70;;;15.60;68.60;;;;;;4844187;29;20046;-89
2023/06/14 08:07:00;;;;;;;16.67;7.70;;;15.80;68.30;;;;;;4845876;29;20045;-89
2023/06/14 08:09:28;;;;;;;21.30;8.38;;;15.90;68.70;;;;;;4846707;29;20053;-89
2023/06/14 08:11:56;;;;;;;24.65;9.15;;;15.80;68.10;;;;;;4836833;29;20042;-88
2023/06/14 08:14:23;;;;;;;20.00;9.27;;;15.70;68.60;;;;;;4860953;29;20046;-89
2023/06/14 08:16:50;;;;;;;45.10;11.52;;;15.60;68.50;;;;;;4843505;29;20489;-89
2023/06/14 08:19:18;;;;;;;93.67;16.47;;;15.50;69.10;;;;;;4843854;29;20144;-89
2023/06/14 08:21:46;;;;;;;28.00;10.20;;;15.50;69.40;;;;;;4861092;29;20041;-89
2023/06/14 08:24:13;;;;;;;21.73;8.43;;;15.50;69.10;;;;;;4841990;29;20052;-89
2023/06/14 08:26:41;;;;;;;17.92;8.45;;;15.60;68.50;;;;;;4844265;29;20073;-89
2023/06/14 08:29:08;;;;;;;19.38;8.52;;;15.80;68.50;;;;;;4844814;29;20412;-89
2023/06/14 08:31:35;;;;;;;18.63;9.03;;;16.10;68.30;;;;;;4835890;29;20044;-89
2023/06/14 08:34:02;;;;;;;20.67;8.70;;;16.20;67.60;;;;;;4844538;29;20062;-89
2023/06/14 08:36:32;;;;;;;19.98;8.63;;;16.40;67.40;;;;;;4860842;29;20053;-89
2023/06/14 08:39:00;;;;;;;19.27;9.30;;;16.50;66.80;;;;;;4840992;29;20046;-89
2023/06/14 08:41:29;;;;;;;18.25;8.73;;;16.60;67.30;;;;;;4859348;29;20053;-88
2023/06/14 08:43:57;;;;;;;18.70;9.23;;;16.70;66.70;;;;;;4844232;29;20052;-89
2023/06/14 08:46:27;;;;;;;17.83;8.85;;;16.70;65.80;;;;;;4842601;29;20053;-89
2023/06/14 08:48:58;;;;;;;34.40;11.88;;;16.80;66.00;;;;;;4841503;29;20076;-89
2023/06/14 08:51:33;;;;;;;20.00;8.50;;;16.90;66.60;;;;;;4844103;29;20139;-89
2023/06/14 08:54:01;;;;;;;26.85;10.63;;;17.00;66.60;;;;;;4842296;29;20049;-88
2023/06/14 08:56:29;;;;;;;17.17;7.67;;;16.80;65.10;;;;;;4843287;29;20053;-89
2023/06/14 08:59:00;;;;;;;33.05;11.60;;;16.70;65.00;;;;;;4840527;29;20049;-89
2023/06/14 09:01:27;;;;;;;42.65;15.18;;;16.50;66.40;;;;;;4852764;29;20516;-89
2023/06/14 09:03:57;;;;;;;30.70;11.40;;;16.50;66.70;;;;;;4843537;29;20052;-89
2023/06/14 09:06:24;;;;;;;19.35;9.02;;;16.60;67.10;;;;;;4843535;29;20070;-89
2023/06/14 09:08:52;;;;;;;15.97;8.07;;;16.80;67.40;;;;;;4841862;29;20511;-87
2023/06/14 09:11:19;;;;;;;21.30;9.25;;;16.70;65.00;;;;;;4841125;29;20064;-89
2023/06/14 09:13:47;;;;;;;18.98;9.27;;;16.90;65.20;;;;;;4844745;29;20056;-89
2023/06/14 09:16:14;;;;;;;23.30;10.00;;;17.00;65.50;;;;;;4843866;29;20073;-89
2023/06/14 09:18:44;;;;;;;18.75;8.85;;;17.10;66.20;;;;;;4843387;29;20144;-89
2023/06/14 09:21:12;;;;;;;15.97;7.60;;;17.30;65.30;;;;;;4858388;29;20083;-89
2023/06/14 09:23:41;;;;;;;11.05;6.30;;;17.50;64.80;;;;;;4841815;29;20042;-89
2023/06/14 09:26:09;;;;;;;14.57;6.90;;;17.60;61.00;;;;;;4852042;29;20042;-89
2023/06/14 09:28:45;;;;;;;18.30;8.13;;;17.60;61.80;;;;;;4844383;29;20464;-89
2023/06/14 09:31:14;;;;;;;15.35;8.15;;;17.50;62.70;;;;;;4852092;29;20073;-89
2023/06/14 09:33:47;;;;;;;26.63;9.17;;;17.50;63.30;;;;;;4842473;29;20054;-89
2023/06/14 09:36:17;;;;;;;16.60;8.52;;;17.40;64.20;;;;;;4859854;29;20060;-89
2023/06/14 09:39:16;;;;;;;16.33;8.00;;;17.60;64.40;;;;;;4830028;29;20041;-89
2023/06/14 09:41:44;;;;;;;16.60;7.63;;;17.80;63.60;;;;;;4832446;29;20049;-89
2023/06/14 09:44:14;;;;;;;12.90;7.15;;;18.00;64.10;;;;;;4844298;29;20053;-89
2023/06/14 09:46:48;;;;;;;14.40;7.67;;;18.20;62.40;;;;;;4842192;29;20042;-89
2023/06/14 09:49:16;;;;;;;14.55;7.07;;;18.20;62.30;;;;;;4843452;29;20413;-90
2023/06/14 09:51:45;;;;;;;16.65;7.78;;;18.50;62.40;;;;;;4853337;29;20056;-89
2023/06/14 09:54:16;;;;;;;15.15;7.88;;;18.50;61.50;;;;;;4856927;29;20045;-88
2023/06/14 09:56:48;;;;;;;14.57;7.03;;;18.50;60.30;;;;;;4841299;29;20055;-89
2023/06/14 09:59:26;;;;;;;14.87;6.70;;;18.20;60.50;;;;;;4844302;29;20526;-89
2023/06/14 10:01:57;;;;;;;14.13;6.75;;;18.10;61.40;;;;;;4838697;29;20318;-89
2023/06/14 10:04:27;;;;;;;13.88;7.18;;;18.30;59.80;;;;;;4837643;29;20454;-90
2023/06/14 10:06:54;;;;;;;13.30;7.30;;;18.50;60.20;;;;;;4856316;29;20551;-90
2023/06/14 10:09:22;;;;;;;12.48;6.60;;;18.80;59.60;;;;;;4841607;29;20132;-90
2023/06/14 10:11:50;;;;;;;16.40;7.33;;;18.50;60.40;;;;;;4834886;29;20049;-89
2023/06/14 10:14:18;;;;;;;13.48;7.22;;;18.30;60.70;;;;;;4844218;29;20053;-90
2023/06/14 10:16:55;;;;;;;14.07;7.13;;;18.30;60.70;;;;;;4839917;29;20058;-89
2023/06/14 10:19:48;;;;;;;13.40;6.57;;;18.50;60.80;;;;;;4841733;29;20072;-89
2023/06/14 10:22:24;;;;;;;12.48;6.75;;;18.70;60.90;;;;;;4844015;29;20492;-90
2023/06/14 10:24:51;;;;;;;13.93;6.27;;;18.50;61.20;;;;;;4857037;29;20097;-90
2023/06/14 10:27:23;;;;;;;17.63;7.35;;;18.40;61.40;;;;;;4842629;29;20061;-89
2023/06/14 10:29:53;;;;;;;14.25;7.10;;;18.40;61.10;;;;;;4859352;29;20081;-90
2023/06/14 10:32:21;;;;;;;11.90;6.60;;;18.40;60.70;;;;;;4843236;29;20068;-90
2023/06/14 10:35:00;;;;;;;12.27;6.38;;;18.50;60.50;;;;;;4842346;29;20057;-90
2023/06/14 10:37:29;;;;;;;15.67;7.20;;;18.30;61.30;;;;;;4851264;29;20133;-89
2023/06/14 10:39:56;;;;;;;14.27;6.68;;;18.30;61.20;;;;;;4841112;29;20404;-89
2023/06/14 10:42:31;;;;;;;12.23;6.65;;;18.50;60.80;;;;;;4855852;29;20126;-89
2023/06/14 10:45:00;;;;;;;12.48;6.15;;;18.80;60.80;;;;;;4858660;29;20049;-89
2023/06/14 10:47:34;;;;;;;12.55;6.63;;;19.00;60.90;;;;;;4841982;29;20125;-89
2023/06/14 10:50:06;;;;;;;14.47;6.30;;;19.20;59.10;;;;;;4857090;29;20041;-89
2023/06/14 10:52:42;;;;;;;13.05;6.55;;;19.10;60.70;;;;;;4844312;29;20519;-89
2023/06/14 10:55:21;;;;;;;13.60;6.68;;;19.30;58.90;;;;;;4839385;29;20465;-90
2023/06/14 10:57:58;;;;;;;11.73;6.00;;;19.60;58.00;;;;;;4843208;29;20125;-89
2023/06/14 11:00:27;;;;;;;10.32;5.82;;;19.60;57.30;;;;;;4841910;29;20420;-89
2023/06/14 11:03:10;;;;;;;11.23;5.73;;;19.20;57.70;;;;;;4841382;29;20049;-89
2023/06/14 11:05:55;;;;;;;12.23;5.72;;;19.00;59.10;;;;;;4858301;29;20409;-89
2023/06/14 11:08:40;;;;;;;11.98;5.75;;;18.90;60.00;;;;;;4841228;29;20109;-89
2023/06/14 11:11:09;;;;;;;14.05;6.43;;;18.70;59.50;;;;;;4841368;29;20077;-89
2023/06/14 11:13:41;;;;;;;12.95;5.60;;;18.70;59.60;;;;;;4843753;29;20544;-89
2023/06/14 11:16:13;;;;;;;12.17;6.03;;;19.00;59.90;;;;;;4841748;29;20572;-89
2023/06/14 11:18:42;;;;;;;13.75;6.90;;;19.30;59.30;;;;;;4845950;29;20045;-89
2023/06/14 11:21:09;;;;;;;11.55;6.03;;;19.20;58.20;;;;;;4846344;29;20042;-89
2023/06/14 11:23:36;;;;;;;12.27;6.07;;;19.30;57.50;;;;;;4859539;29;20093;-90
2023/06/14 11:26:06;;;;;;;12.10;5.97;;;19.50;58.00;;;;;;4841076;29;20038;-89
2023/06/14 11:28:41;;;;;;;11.80;5.53;;;19.80;57.00;;;;;;4846863;29;20492;-89
2023/06/14 11:31:10;;;;;;;12.32;5.63;;;20.00;55.70;;;;;;4841253;29;20046;-90
2023/06/14 11:33:37;;;;;;;11.98;5.00;;;20.40;54.60;;;;;;4858956;29;20083;-90
2023/06/14 11:36:08;;;;;;;10.40;5.15;;;20.60;54.50;;;;;;4862375;29;20405;-90
2023/06/14 11:38:39;;;;;;;9.95;5.00;;;20.80;52.20;;;;;;4857820;29;20545;-89
2023/06/14 11:41:06;;;;;;;13.77;5.63;;;20.70;53.40;;;;;;4841713;29;20509;-90
2023/06/14 11:43:35;;;;;;;10.35;5.65;;;20.60;54.70;;;;;;4863837;29;20053;-90
2023/06/14 11:46:02;;;;;;;11.70;5.70;;;20.40;55.10;;;;;;4859116;29;20073;-89
2023/06/14 11:48:39;;;;;;;10.95;5.45;;;20.50;54.30;;;;;;4846025;29;20041;-90
2023/06/14 11:51:07;;;;;;;11.90;5.63;;;20.70;53.70;;;;;;4849003;29;20500;-90
2023/06/14 11:53:34;;;;;;;9.93;5.03;;;21.10;53.20;;;;;;4843493;29;20130;-90
2023/06/14 11:56:02;;;;;;;11.90;5.32;;;21.30;50.80;;;;;;4859815;29;20496;-89
2023/06/14 11:58:29;;;;;;;11.15;5.20;;;21.20;51.50;;;;;;4848330;29;20045;-90
2023/06/14 12:00:57;;;;;;;13.27;5.70;;;21.40;53.20;;;;;;4843384;29;20068;-89
2023/06/14 12:03:27;;;;;;;10.40;5.45;;;21.30;52.60;;;;;;4843066;29;20042;-90
2023/06/14 12:06:08;;;;;;;11.13;5.30;;;21.20;53.40;;;;;;4849352;29;20381;-89
2023/06/14 12:08:40;;;;;;;10.18;4.82;;;21.00;51.20;;;;;;4860109;29;20093;-90
2023/06/14 12:11:15;;;;;;;12.65;5.25;;;20.50;53.20;;;;;;4844900;29;20572;-90
2023/06/14 12:13:43;;;;;;;11.07;5.13;;;20.10;53.40;;;;;;4846386;29;20057;-90
2023/06/14 12:16:11;;;;;;;10.45;4.55;;;20.00;53.60;;;;;;4844855;29;20082;-90
2023/06/14 12:18:40;;;;;;;11.33;5.93;;;20.20;56.00;;;;;;4863284;29;20051;-89
2023/06/14 12:21:09;;;;;;;10.80;4.82;;;20.60;53.70;;;;;;4860265;29;20057;-90
2023/06/14 12:23:50;;;;;;;11.52;4.85;;;20.90;52.30;;;;;;4847490;29;20132;-90
2023/06/14 12:26:19;;;;;;;10.38;4.53;;;21.10;51.80;;;;;;4856974;29;20113;-90
2023/06/14 12:28:48;;;;;;;11.52;5.10;;;21.10;50.70;;;;;;4860761;29;20055;-90
2023/06/14 12:31:16;;;;;;;9.17;4.67;;;21.30;51.50;;;;;;4840834;29;20049;-90
2023/06/14 12:33:45;;;;;;;8.77;4.03;;;21.50;48.70;;;;;;4860816;29;20496;-90
2023/06/14 12:36:13;;;;;;;8.60;4.13;;;21.80;47.70;;;;;;4846519;29;20127;-90
2023/06/14 12:38:41;;;;;;;9.98;4.63;;;22.10;48.80;;;;;;4858252;29;20045;-90
2023/06/14 12:41:08;;;;;;;9.82;4.70;;;22.30;46.90;;;;;;4865763;29;20041;-89
2023/06/14 12:43:35;;;;;;;9.03;4.60;;;22.20;47.20;;;;;;4845472;29;20041;-90
2023/06/14 12:46:02;;;;;;;10.45;4.70;;;22.10;48.60;;;;;;4860931;29;20045;-89
2023/06/14 12:48:31;;;;;;;9.52;4.35;;;22.10;48.00;;;;;;4843712;29;20042;-90